createdAt,value
2019-02-21T00:00:54.793Z,75.21
2019-02-21T00:03:23.213Z,75.17
2019-02-21T00:05:51.512Z,75.36
2019-02-21T00:08:19.858Z,75.40
2019-02-21T00:10:48.160Z,75.42
2019-02-21T00:13:16.461Z,75.56
2019-02-21T00:15:44.749Z,75.72
2019-02-21T00:18:13.365Z,75.79
2019-02-21T00:20:41.658Z,75.91
2019-02-21T00:23:09.961Z,76.05
2019-02-21T00:25:38.606Z,76.07
2019-02-21T00:28:06.908Z,76.29
2019-02-21T00:30:35.681Z,76.35
2019-02-21T00:33:03.970Z,76.51
2019-02-21T00:35:32.295Z,76.67
2019-02-21T00:38:00.590Z,76.80
2019-02-21T00:40:28.937Z,76.96
2019-02-21T00:42:57.238Z,77.33
2019-02-21T00:45:25.553Z,77.54
2019-02-21T00:47:54.097Z,77.64
2019-02-21T00:50:22.412Z,77.73
2019-02-21T00:52:50.701Z,77.87
2019-02-21T00:55:19.352Z,77.97
2019-02-21T00:57:47.641Z,78.03
2019-02-21T01:00:15.952Z,78.13
2019-02-21T01:02:44.250Z,78.43
2019-02-21T01:05:12.538Z,78.66
2019-02-21T01:07:41.138Z,79.00
2019-02-21T01:10:09.509Z,79.28
2019-02-21T01:12:37.818Z,79.41
2019-02-21T01:15:08.690Z,79.52
2019-02-21T01:17:36.999Z,79.61
2019-02-21T01:20:06.266Z,79.74
2019-02-21T01:22:34.902Z,79.90
2019-02-21T01:25:03.192Z,79.84
2019-02-21T01:27:31.851Z,79.89
2019-02-21T01:30:00.258Z,79.93
2019-02-21T01:32:29.119Z,79.92
2019-02-21T01:34:57.440Z,79.97
2019-02-21T01:37:25.808Z,80.14
2019-02-21T01:39:54.473Z,80.38
2019-02-21T01:42:22.871Z,80.37
2019-02-21T01:44:51.180Z,80.30
2019-02-21T01:47:19.907Z,80.30
2019-02-21T01:49:48.222Z,80.25
2019-02-21T01:52:16.547Z,80.20
2019-02-21T01:54:44.863Z,80.38
2019-02-21T01:57:13.423Z,80.54
2019-02-21T01:59:41.836Z,80.59
2019-02-21T02:02:10.203Z,80.66
2019-02-21T02:04:38.601Z,80.69
2019-02-21T02:07:06.906Z,80.82
2019-02-21T02:09:35.524Z,80.91
2019-02-21T02:12:03.818Z,81.08
2019-02-21T02:14:32.233Z,81.24
2019-02-21T02:17:00.524Z,81.29
2019-02-21T02:19:28.831Z,81.36
2019-02-21T02:21:57.409Z,81.35
2019-02-21T02:24:25.702Z,81.37
2019-02-21T02:26:54.376Z,81.44
2019-02-21T02:29:22.956Z,81.58
2019-02-21T02:31:51.269Z,81.80
2019-02-21T02:34:19.600Z,81.94
2019-02-21T02:36:47.893Z,81.88
2019-02-21T02:39:16.197Z,82.04
2019-02-21T02:41:44.502Z,82.01
2019-02-21T02:44:12.803Z,82.06
2019-02-21T02:46:41.240Z,82.26
2019-02-21T02:49:09.491Z,82.29
2019-02-21T02:51:37.829Z,82.33
2019-02-21T02:54:06.435Z,82.31
2019-02-21T02:56:34.744Z,82.31
2019-02-21T02:59:03.108Z,82.28
2019-02-21T03:01:35.102Z,82.29
2019-02-21T03:04:02.356Z,82.37
2019-02-21T03:06:30.907Z,82.57
2019-02-21T03:08:59.206Z,82.67
2019-02-21T03:11:27.516Z,82.71
2019-02-21T03:13:55.837Z,82.77
2019-02-21T03:16:24.148Z,82.79
2019-02-21T03:18:52.824Z,82.83
2019-02-21T03:21:21.391Z,82.84
2019-02-21T03:23:49.684Z,82.88
2019-02-21T03:26:17.992Z,82.94
2019-02-21T03:28:46.292Z,83.05
2019-02-21T03:31:14.619Z,82.95
2019-02-21T03:33:42.914Z,82.85
2019-02-21T03:36:11.232Z,82.75
2019-02-21T03:38:39.765Z,82.61
2019-02-21T03:41:08.091Z,82.39
2019-02-21T03:43:36.387Z,82.26
2019-02-21T03:46:04.717Z,82.31
2019-02-21T03:48:33.013Z,82.18
2019-02-21T03:51:01.315Z,82.08
2019-02-21T03:53:29.715Z,81.96
2019-02-21T03:55:58.040Z,81.96
2019-02-21T03:58:26.702Z,81.83
2019-02-21T04:00:55.619Z,81.84
2019-02-21T04:03:23.927Z,81.83
2019-02-21T04:05:52.233Z,81.99
2019-02-21T04:08:20.534Z,82.07
2019-02-21T04:10:48.856Z,82.05
2019-02-21T04:13:17.156Z,82.07
2019-02-21T04:15:45.472Z,82.16
2019-02-21T04:18:13.770Z,82.26
2019-02-21T04:20:42.070Z,82.33
2019-02-21T04:23:10.409Z,82.61
2019-02-21T04:25:38.695Z,82.80
2019-02-21T04:28:08.100Z,83.07
2019-02-21T04:30:36.405Z,83.15
2019-02-21T04:33:04.969Z,83.22
2019-02-21T04:35:33.368Z,83.20
2019-02-21T04:38:02.028Z,83.00
2019-02-21T04:40:30.338Z,83.03
2019-02-21T04:42:58.978Z,83.07
2019-02-21T04:45:27.280Z,83.07
2019-02-21T04:47:55.692Z,83.05
2019-02-21T04:50:23.994Z,82.97
2019-02-21T04:52:52.385Z,83.03
2019-02-21T04:55:20.691Z,83.00
2019-02-21T04:57:49.000Z,83.08
2019-02-21T05:00:17.308Z,83.28
2019-02-21T05:02:46.548Z,83.29
2019-02-21T05:05:14.864Z,83.54
2019-02-21T05:07:43.172Z,83.49
2019-02-21T05:10:11.505Z,83.46
2019-02-21T05:12:39.809Z,83.56
2019-02-21T05:15:08.124Z,83.60
2019-02-21T05:17:36.437Z,83.53
2019-02-21T05:20:05.723Z,83.52
2019-02-21T05:22:34.022Z,83.53
2019-02-21T05:25:02.342Z,83.43
2019-02-21T05:27:32.277Z,83.37
2019-02-21T05:30:00.620Z,83.35
2019-02-21T05:32:41.069Z,83.29
2019-02-21T05:35:05.218Z,83.24
2019-02-21T05:37:35.185Z,82.99
2019-02-21T05:40:05.143Z,83.04
2019-02-21T05:42:51.525Z,83.14
2019-02-21T05:45:24.284Z,83.13
2019-02-21T05:47:54.236Z,83.13
2019-02-21T05:50:24.526Z,83.24
2019-02-21T05:53:03.239Z,83.20
2019-02-21T05:55:49.767Z,83.24
2019-02-21T05:58:28.997Z,83.32
2019-02-21T06:01:08.288Z,83.25
2019-02-21T06:03:38.224Z,83.28
2019-02-21T06:06:10.865Z,83.23
2019-02-21T06:08:41.149Z,83.19
2019-02-21T06:11:23.058Z,83.07
2019-02-21T06:13:52.969Z,83.20
2019-02-21T06:16:40.773Z,83.22
2019-02-21T06:19:10.887Z,83.29
2019-02-21T06:21:41.128Z,83.34
2019-02-21T06:24:27.424Z,83.34
2019-02-21T06:26:57.374Z,83.45
2019-02-21T06:29:27.325Z,83.56
2019-02-21T06:31:55.621Z,83.79
2019-02-21T06:34:23.946Z,83.81
2019-02-21T06:36:52.237Z,83.84
2019-02-21T06:39:20.552Z,83.84
2019-02-21T06:41:59.065Z,83.90
2019-02-21T06:44:19.248Z,83.96
2019-02-21T06:46:47.859Z,84.06
2019-02-21T06:49:16.179Z,84.21
2019-02-21T06:51:44.470Z,84.37
2019-02-21T06:54:12.779Z,84.38
2019-02-21T06:56:41.086Z,84.20
2019-02-21T06:59:09.763Z,84.34
2019-02-21T07:01:38.431Z,84.56
2019-02-21T07:04:07.012Z,84.66
2019-02-21T07:06:35.315Z,84.69
2019-02-21T07:09:04.601Z,84.79
2019-02-21T07:11:32.996Z,84.82
2019-02-21T07:14:01.292Z,84.88
2019-02-21T07:16:29.615Z,84.75
2019-02-21T07:18:57.913Z,84.64
2019-02-21T07:21:26.327Z,84.57
2019-02-21T07:23:54.645Z,84.55
2019-02-21T07:26:23.940Z,84.47
2019-02-21T07:28:52.233Z,84.47
2019-02-21T07:31:28.948Z,84.46
2019-02-21T07:33:50.669Z,84.37
2019-02-21T07:36:18.963Z,84.36
2019-02-21T07:38:47.801Z,84.10
2019-02-21T07:41:18.542Z,83.89
2019-02-21T07:43:46.395Z,83.85
2019-02-21T07:46:14.718Z,83.75
2019-02-21T07:48:43.023Z,83.71
2019-02-21T07:51:13.382Z,83.62
2019-02-21T07:53:41.649Z,83.63
2019-02-21T07:56:09.970Z,83.70
2019-02-21T07:58:39.658Z,83.66
2019-02-21T08:01:08.098Z,83.57
2019-02-21T08:03:44.497Z,83.14
2019-02-21T08:06:07.021Z,83.10
2019-02-21T08:08:35.336Z,82.57
2019-02-21T08:11:03.618Z,82.13
2019-02-21T08:13:31.923Z,81.86
2019-02-21T08:16:00.287Z,81.20
2019-02-21T08:18:28.584Z,81.00
2019-02-21T08:20:57.036Z,80.38
2019-02-21T08:23:25.384Z,80.02
2019-02-21T08:25:54.058Z,79.79
2019-02-21T08:28:22.464Z,79.11
2019-02-21T08:30:50.772Z,79.18
2019-02-21T08:33:20.699Z,78.96
2019-02-21T08:35:49.015Z,78.81
2019-02-21T08:38:17.308Z,78.38
2019-02-21T08:40:45.601Z,78.08
2019-02-21T08:43:13.975Z,78.09
2019-02-21T08:45:42.289Z,77.97
2019-02-21T08:48:13.291Z,77.85
2019-02-21T08:50:40.925Z,77.83
2019-02-21T08:53:09.408Z,77.53
2019-02-21T08:55:40.374Z,77.31
2019-02-21T08:58:08.143Z,77.18
2019-02-21T09:00:36.428Z,77.01
2019-02-21T09:03:04.919Z,76.87
2019-02-21T09:05:33.253Z,76.84
2019-02-21T09:08:01.577Z,76.21
2019-02-21T09:10:29.877Z,76.04
2019-02-21T09:12:58.199Z,75.81
2019-02-21T09:15:26.853Z,75.54
2019-02-21T09:17:55.189Z,75.44
2019-02-21T09:20:23.499Z,75.69
2019-02-21T09:22:51.810Z,76.01
2019-02-21T09:25:20.117Z,76.06
2019-02-21T09:27:48.735Z,76.11
2019-02-21T09:30:18.581Z,76.05
2019-02-21T09:32:47.240Z,75.54
2019-02-21T09:35:15.579Z,74.85
2019-02-21T09:37:43.932Z,74.21
2019-02-21T09:40:14.699Z,74.16
2019-02-21T09:42:43.034Z,74.17
2019-02-21T09:45:16.290Z,74.06
2019-02-21T09:47:44.583Z,73.74
2019-02-21T09:50:13.141Z,73.20
2019-02-21T09:52:41.446Z,72.99
2019-02-21T09:55:12.456Z,72.88
2019-02-21T09:57:40.766Z,72.60
2019-02-21T10:00:12.256Z,72.55
2019-02-21T10:02:42.088Z,72.83
2019-02-21T10:05:10.816Z,73.19
2019-02-21T10:07:39.157Z,73.22
2019-02-21T10:10:10.792Z,72.98
2019-02-21T10:12:39.133Z,72.44
2019-02-21T10:15:09.882Z,71.87
2019-02-21T10:17:38.200Z,71.65
2019-02-21T10:20:20.945Z,70.77
2019-02-21T10:22:49.656Z,71.45
2019-02-21T10:25:23.168Z,71.68
2019-02-21T10:27:51.010Z,71.98
2019-02-21T10:30:21.429Z,72.16
2019-02-21T10:32:50.119Z,72.08
2019-02-21T10:35:18.544Z,72.09
2019-02-21T10:37:46.909Z,72.58
2019-02-21T10:40:15.960Z,72.71
2019-02-21T10:42:44.557Z,72.53
2019-02-21T10:45:18.012Z,71.96
2019-02-21T10:47:46.302Z,72.82
2019-02-21T10:50:19.800Z,73.29
2019-02-21T10:52:48.698Z,73.81
2019-02-21T10:55:17.859Z,74.13
2019-02-21T10:57:46.344Z,73.46
2019-02-21T11:00:23.063Z,72.82
2019-02-21T11:02:51.444Z,72.43
2019-02-21T11:05:19.760Z,72.07
2019-02-21T11:07:48.068Z,71.54
2019-02-21T11:10:20.053Z,70.89
2019-02-21T11:12:48.389Z,70.44
2019-02-21T11:15:18.725Z,69.75
2019-02-21T11:17:47.059Z,69.89
2019-02-21T11:20:19.077Z,69.33
2019-02-21T11:22:47.679Z,69.29
2019-02-21T11:25:16.000Z,69.02
2019-02-21T11:27:44.385Z,68.66
2019-02-21T11:30:17.616Z,68.62
2019-02-21T11:32:46.014Z,68.75
2019-02-21T11:35:14.628Z,68.13
2019-02-21T11:37:46.764Z,68.81
2019-02-21T11:40:15.650Z,68.77
2019-02-21T11:42:44.611Z,68.74
2019-02-21T11:45:15.214Z,68.58
2019-02-21T11:47:44.211Z,67.41
2019-02-21T11:50:17.914Z,67.14
2019-02-21T11:52:46.241Z,67.00
2019-02-21T11:55:22.471Z,66.74
2019-02-21T11:57:50.986Z,66.46
2019-02-21T12:00:24.626Z,66.25
2019-02-21T12:02:53.185Z,65.44
2019-02-21T12:05:30.366Z,64.88
2019-02-21T12:07:51.617Z,64.95
2019-02-21T12:10:19.944Z,64.57
2019-02-21T12:12:48.253Z,64.84
2019-02-21T12:15:17.529Z,65.19
2019-02-21T12:17:45.857Z,64.91
2019-02-21T12:20:16.209Z,64.91
2019-02-21T12:22:44.526Z,65.04
2019-02-21T12:25:15.071Z,65.55
2019-02-21T12:27:43.369Z,65.54
2019-02-21T12:30:18.751Z,65.49
2019-02-21T12:32:47.124Z,65.37
2019-02-21T12:35:15.527Z,65.30
2019-02-21T12:37:43.831Z,64.52
2019-02-21T12:40:22.585Z,64.17
2019-02-21T12:42:50.887Z,63.03
2019-02-21T12:45:26.393Z,62.96
2019-02-21T12:47:55.022Z,62.54
2019-02-21T12:50:23.335Z,62.55
2019-02-21T12:52:51.658Z,62.58
2019-02-21T12:55:28.224Z,62.38
2019-02-21T12:57:50.011Z,62.41
2019-02-21T13:00:22.351Z,62.56
2019-02-21T13:02:50.681Z,62.50
2019-02-21T13:05:19.061Z,62.51
2019-02-21T13:07:47.382Z,62.15
2019-02-21T13:10:21.856Z,61.39
2019-02-21T13:12:50.181Z,60.74
2019-02-21T13:15:18.481Z,60.18
2019-02-21T13:17:46.829Z,60.18
2019-02-21T13:20:15.468Z,60.71
2019-02-21T13:22:43.760Z,60.43
2019-02-21T13:25:14.613Z,60.60
2019-02-21T13:27:42.913Z,60.56
2019-02-21T13:30:18.793Z,60.44
2019-02-21T13:32:47.102Z,60.84
2019-02-21T13:35:15.423Z,60.87
2019-02-21T13:37:43.818Z,60.59
2019-02-21T13:40:14.852Z,60.80
2019-02-21T13:42:43.144Z,60.68
2019-02-21T13:45:18.013Z,60.44
2019-02-21T13:47:46.744Z,60.58
2019-02-21T13:50:23.721Z,60.96
2019-02-21T13:52:51.409Z,60.98
2019-02-21T13:55:19.787Z,60.84
2019-02-21T13:57:48.103Z,60.98
2019-02-21T14:00:24.070Z,60.93
2019-02-21T14:02:52.396Z,61.02
2019-02-21T14:05:20.699Z,61.17
2019-02-21T14:07:49.077Z,60.81
2019-02-21T14:10:17.543Z,60.99
2019-02-21T14:12:46.029Z,61.27
2019-02-21T14:15:17.527Z,61.35
2019-02-21T14:17:46.758Z,61.30
2019-02-21T14:20:15.464Z,61.46
2019-02-21T14:22:43.787Z,61.33
2019-02-21T14:25:12.497Z,61.51
2019-02-21T14:27:40.802Z,61.38
2019-02-21T14:30:18.174Z,61.52
2019-02-21T14:32:46.483Z,61.84
2019-02-21T14:35:15.568Z,61.59
2019-02-21T14:37:43.946Z,61.29
2019-02-21T14:40:13.643Z,61.59
2019-02-21T14:42:41.959Z,61.51
2019-02-21T14:45:13.660Z,61.32
2019-02-21T14:47:42.023Z,61.84
2019-02-21T14:50:11.881Z,61.77
2019-02-21T14:52:40.337Z,61.67
2019-02-21T14:55:11.016Z,61.82
2019-02-21T14:57:41.217Z,61.95
2019-02-21T15:00:23.676Z,61.72
2019-02-21T15:02:51.977Z,62.14
2019-02-21T15:05:20.786Z,62.06
2019-02-21T15:07:49.171Z,62.51
2019-02-21T15:10:17.752Z,62.30
2019-02-21T15:12:46.383Z,62.52
2019-02-21T15:15:25.503Z,62.57
2019-02-21T15:17:53.845Z,61.99
2019-02-21T15:20:22.500Z,61.44
2019-02-21T15:22:50.789Z,61.05
2019-02-21T15:25:19.109Z,60.90
2019-02-21T15:27:47.429Z,60.67
2019-02-21T15:30:21.525Z,61.07
2019-02-21T15:32:50.021Z,61.29
2019-02-21T15:35:19.507Z,61.41
2019-02-21T15:37:48.233Z,61.77
2019-02-21T15:40:16.582Z,62.05
2019-02-21T15:42:45.159Z,62.24
2019-02-21T15:45:23.099Z,62.30
2019-02-21T15:47:46.472Z,62.59
2019-02-21T15:50:15.393Z,62.54
2019-02-21T15:52:45.037Z,63.05
2019-02-21T15:55:15.593Z,63.43
2019-02-21T15:57:43.953Z,63.86
2019-02-21T16:00:15.281Z,63.88
2019-02-21T16:02:43.591Z,63.75
2019-02-21T16:05:11.957Z,64.19
2019-02-21T16:07:40.278Z,64.42
2019-02-21T16:10:19.795Z,64.48
2019-02-21T16:12:48.662Z,64.65
2019-02-21T16:15:17.141Z,64.81
2019-02-21T16:17:45.488Z,65.15
2019-02-21T16:20:16.233Z,65.36
2019-02-21T16:22:44.837Z,65.09
2019-02-21T16:25:22.269Z,65.34
2019-02-21T16:27:50.608Z,65.71
2019-02-21T16:30:18.906Z,66.01
2019-02-21T16:32:47.312Z,66.19
2019-02-21T16:35:15.653Z,66.31
2019-02-21T16:37:44.302Z,66.45
2019-02-21T16:40:14.958Z,66.75
2019-02-21T16:42:43.304Z,66.68
2019-02-21T16:45:13.854Z,66.94
2019-02-21T16:47:42.250Z,67.00
2019-02-21T16:50:14.891Z,67.04
2019-02-21T16:52:43.479Z,67.18
2019-02-21T16:55:21.821Z,67.45
2019-02-21T16:57:50.151Z,67.62
2019-02-21T17:00:21.127Z,67.58
2019-02-21T17:02:52.130Z,67.74
2019-02-21T17:05:20.582Z,67.98
2019-02-21T17:07:49.213Z,68.08
2019-02-21T17:10:18.240Z,68.18
2019-02-21T17:12:46.531Z,68.33
2019-02-21T17:15:18.508Z,68.28
2019-02-21T17:17:46.800Z,68.43
2019-02-21T17:20:23.161Z,68.60
2019-02-21T17:22:51.461Z,68.65
2019-02-21T17:25:19.801Z,68.69
2019-02-21T17:27:49.723Z,68.70
2019-02-21T17:30:18.605Z,68.83
2019-02-21T17:32:47.253Z,68.85
2019-02-21T17:35:16.009Z,68.78
2019-02-21T17:37:44.710Z,68.98
2019-02-21T17:40:24.232Z,69.20
2019-02-21T17:42:52.835Z,69.24
2019-02-21T17:45:21.608Z,69.51
2019-02-21T17:47:49.917Z,69.66
2019-02-21T17:50:19.167Z,69.82
2019-02-21T17:52:47.989Z,70.02
2019-02-21T17:55:17.094Z,70.18
2019-02-21T17:57:45.419Z,70.39
2019-02-21T18:00:21.018Z,70.50
2019-02-21T18:02:49.341Z,70.59
2019-02-21T18:05:17.979Z,70.92
2019-02-21T18:07:46.261Z,70.98
2019-02-21T18:10:15.905Z,71.10
2019-02-21T18:12:44.355Z,71.40
2019-02-21T18:15:14.326Z,71.46
2019-02-21T18:17:42.627Z,71.66
2019-02-21T18:20:12.947Z,71.79
2019-02-21T18:22:41.337Z,71.85
2019-02-21T18:25:18.828Z,71.92
2019-02-21T18:27:47.133Z,72.08
2019-02-21T18:30:17.249Z,72.12
2019-02-21T18:32:45.642Z,72.36
2019-02-21T18:35:14.237Z,72.41
2019-02-21T18:37:47.334Z,72.56
2019-02-21T18:40:20.644Z,72.61
2019-02-21T18:42:48.459Z,72.50
2019-02-21T18:45:16.781Z,72.64
2019-02-21T18:47:45.078Z,72.73
2019-02-21T18:50:14.516Z,72.73
2019-02-21T18:52:42.839Z,72.59
2019-02-21T18:55:11.314Z,72.74
2019-02-21T18:57:39.714Z,72.74
2019-02-21T19:00:11.076Z,72.99
2019-02-21T19:02:39.390Z,73.11
2019-02-21T19:05:08.757Z,73.26
2019-02-21T19:07:37.063Z,73.49
2019-02-21T19:10:08.780Z,73.94
2019-02-21T19:12:37.109Z,74.44
2019-02-21T19:15:07.460Z,75.11
2019-02-21T19:17:35.790Z,76.00
2019-02-21T19:20:06.217Z,76.36
2019-02-21T19:22:34.785Z,76.92
2019-02-21T19:25:03.376Z,77.42
2019-02-21T19:27:37.039Z,77.80
2019-02-21T19:30:02.272Z,78.34
2019-02-21T19:32:30.584Z,78.72
2019-02-21T19:34:59.226Z,79.24
2019-02-21T19:37:27.787Z,79.70
2019-02-21T19:39:56.424Z,80.33
2019-02-21T19:42:25.079Z,81.05
2019-02-21T19:44:53.426Z,81.92
2019-02-21T19:47:21.716Z,82.64
2019-02-21T19:49:50.021Z,83.10
2019-02-21T19:52:18.420Z,83.18
2019-02-21T19:54:46.986Z,83.34
2019-02-21T19:57:15.302Z,83.70
2019-02-21T19:59:43.765Z,83.84
2019-02-21T20:02:12.093Z,83.82
2019-02-21T20:04:40.709Z,84.47
2019-02-21T20:07:09.034Z,84.18
2019-02-21T20:09:37.654Z,84.59
2019-02-21T20:12:05.983Z,85.06
2019-02-21T20:14:34.335Z,85.34
2019-02-21T20:17:02.665Z,85.77
2019-02-21T20:19:30.965Z,86.10
2019-02-21T20:21:59.554Z,86.43
2019-02-21T20:24:27.877Z,86.45
2019-02-21T20:26:56.184Z,86.45
2019-02-21T20:29:24.794Z,86.72
2019-02-21T20:31:53.199Z,86.96
2019-02-21T20:34:21.533Z,87.39
2019-02-21T20:36:51.391Z,87.29
2019-02-21T20:39:19.943Z,87.71
2019-02-21T20:41:48.257Z,87.88
2019-02-21T20:44:16.572Z,87.93
2019-02-21T20:46:44.912Z,87.87
2019-02-21T20:49:13.562Z,87.67
2019-02-21T20:51:41.864Z,88.05
2019-02-21T20:54:12.886Z,88.32
2019-02-21T20:56:40.563Z,88.38
2019-02-21T20:59:08.878Z,88.40
2019-02-21T21:01:37.505Z,88.28
2019-02-21T21:04:05.800Z,88.22
2019-02-21T21:06:34.475Z,88.40
2019-02-21T21:09:04.534Z,88.54
2019-02-21T21:11:32.847Z,88.86
2019-02-21T21:14:01.150Z,88.75
2019-02-21T21:16:29.549Z,88.75
2019-02-21T21:18:57.857Z,89.07
2019-02-21T21:21:26.182Z,89.16
2019-02-21T21:23:54.493Z,89.03
2019-02-21T21:26:22.817Z,89.21
2019-02-21T21:28:51.155Z,89.44
2019-02-21T21:31:19.804Z,89.76
2019-02-21T21:33:48.098Z,89.43
2019-02-21T21:36:16.492Z,89.79
2019-02-21T21:38:53.603Z,90.20
2019-02-21T21:41:14.907Z,90.20
2019-02-21T21:43:43.220Z,90.52
2019-02-21T21:46:11.545Z,90.50
2019-02-21T21:48:39.855Z,90.58
2019-02-21T21:51:08.153Z,90.55
2019-02-21T21:53:36.577Z,90.58
2019-02-21T21:56:04.956Z,90.84
2019-02-21T21:58:33.266Z,91.04
2019-02-21T22:01:01.561Z,91.09
2019-02-21T22:03:29.886Z,91.03
2019-02-21T22:05:58.190Z,90.96
2019-02-21T22:08:26.808Z,90.98
2019-02-21T22:10:55.115Z,90.94
2019-02-21T22:13:23.448Z,91.21
2019-02-21T22:15:51.760Z,91.28
2019-02-21T22:18:20.064Z,91.28
2019-02-21T22:20:48.395Z,91.18
2019-02-21T22:23:16.706Z,91.01
2019-02-21T22:25:45.025Z,91.07
2019-02-21T22:28:13.345Z,90.93
2019-02-21T22:30:41.664Z,91.05
2019-02-21T22:33:09.978Z,91.08
2019-02-21T22:35:38.399Z,90.92
2019-02-21T22:38:06.717Z,91.18
2019-02-21T22:40:35.042Z,91.15
2019-02-21T22:43:03.356Z,91.27
2019-02-21T22:45:31.699Z,91.27
2019-02-21T22:48:00.011Z,91.12
2019-02-21T22:50:28.624Z,91.03
2019-02-21T22:52:56.953Z,90.95
2019-02-21T22:55:25.263Z,91.00
2019-02-21T22:57:53.881Z,90.84
2019-02-21T23:00:38.511Z,90.89
2019-02-21T23:03:09.232Z,90.93
2019-02-21T23:05:49.447Z,90.98
2019-02-21T23:08:42.036Z,90.99
2019-02-21T23:11:10.695Z,91.01
2019-02-21T23:13:39.531Z,91.05
2019-02-21T23:16:07.937Z,91.09
2019-02-21T23:18:36.289Z,91.19
2019-02-21T23:21:04.842Z,91.27
2019-02-21T23:23:33.165Z,91.09
2019-02-21T23:26:01.723Z,91.41
2019-02-21T23:28:30.035Z,91.43
2019-02-21T23:30:58.703Z,91.46
2019-02-21T23:33:28.113Z,91.66
2019-02-21T23:35:56.396Z,91.67
2019-02-21T23:38:24.707Z,91.76
2019-02-21T23:40:53.008Z,91.89
2019-02-21T23:43:21.304Z,91.76
2019-02-21T23:45:49.625Z,91.93
2019-02-21T23:48:17.940Z,92.15
2019-02-21T23:50:46.265Z,92.27
2019-02-21T23:53:14.595Z,92.32
2019-02-21T23:55:43.203Z,92.48
2019-02-21T23:58:11.510Z,92.47
